Time;durP1;ratioP1;P1;durP2;ratioP2;P2;SDS_P1;SDS_P2;PMS_P1;PMS_P2;Temp;Humidity;BMP_temperature;BMP_pressure;BME280_temperature;BME280_humidity;BME280_pressure;Samples;Min_cycle;Max_cycle;Signal;HPM_P1;HPM_P2
2023/05/03 00:01:31;;;;;;;4.35;1.10;;;4.00;99.90;;;;;;5049201;28;20068;-47
2023/05/03 00:03:57;;;;;;;3.42;1.02;;;4.00;99.90;;;;;;5050790;28;20040;-50
2023/05/03 00:06:23;;;;;;;3.13;0.70;;;4.00;99.90;;;;;;5052262;28;20064;-47
2023/05/03 00:08:48;;;;;;;2.88;1.00;;;4.10;99.90;;;;;;5052524;28;20075;-48
2023/05/03 00:11:14;;;;;;;3.75;1.45;;;4.10;99.90;;;;;;5052333;28;20049;-47
2023/05/03 00:13:40;;;;;;;2.28;0.85;;;4.10;99.90;;;;;;5052284;28;20056;-46
2023/05/03 00:16:06;;;;;;;3.78;1.50;;;4.50;99.90;;;;;;5052457;28;20055;-47
2023/05/03 00:18:32;;;;;;;1.80;0.80;;;4.20;99.90;;;;;;5051984;28;20037;-51
2023/05/03 00:20:58;;;;;;;3.05;0.95;;;4.20;99.90;;;;;;5051409;28;20071;-47
2023/05/03 00:23:24;;;;;;;5.10;1.20;;;4.20;99.90;;;;;;5052300;28;20041;-46
2023/05/03 00:25:57;;;;;;;3.60;0.80;;;4.20;99.90;;;;;;5052024;28;20052;-45
2023/05/03 00:28:26;;;;;;;3.78;1.10;;;4.20;99.90;;;;;;5051606;28;20049;-47
2023/05/03 00:30:52;;;;;;;2.88;0.90;;;4.20;99.90;;;;;;5032935;28;20046;-46
2023/05/03 00:33:17;;;;;;;3.75;1.33;;;4.20;99.90;;;;;;5051346;28;20064;-46
2023/05/03 00:35:43;;;;;;;2.88;0.88;;;4.10;99.90;;;;;;5051464;28;20044;-46
2023/05/03 00:38:10;;;;;;;5.07;1.20;;;4.20;99.90;;;;;;5051346;28;20047;-47
2023/05/03 00:40:35;;;;;;;2.05;0.63;;;4.20;99.90;;;;;;5051362;28;20071;-47
2023/05/03 00:43:01;;;;;;;3.05;1.15;;;4.20;99.90;;;;;;5051314;28;20033;-46
2023/05/03 00:45:32;;;;;;;2.13;1.05;;;4.30;99.90;;;;;;5051176;28;20037;-47
2023/05/03 00:47:59;;;;;;;2.50;1.10;;;4.00;99.90;;;;;;5043274;28;20044;-46
2023/05/03 00:50:25;;;;;;;1.35;0.60;;;4.20;99.90;;;;;;5051574;28;20056;-46
2023/05/03 00:52:50;;;;;;;3.45;0.95;;;4.30;99.90;;;;;;5051223;28;20044;-47
2023/05/03 00:55:16;;;;;;;2.33;0.95;;;4.10;99.90;;;;;;5051061;28;20045;-46
2023/05/03 00:57:42;;;;;;;4.93;1.10;;;4.30;99.90;;;;;;5051036;28;20110;-50
2023/05/03 01:00:09;;;;;;;1.98;0.90;;;4.30;99.90;;;;;;5051178;28;20037;-48
2023/05/03 01:02:35;;;;;;;4.30;1.08;;;4.30;99.90;;;;;;5050656;28;20267;-46
2023/05/03 01:05:02;;;;;;;3.55;1.00;;;4.30;99.90;;;;;;5029608;28;20395;-46
2023/05/03 01:07:30;;;;;;;4.43;1.33;;;4.30;99.90;;;;;;5046561;28;20080;-46
2023/05/03 01:10:00;;;;;;;3.53;1.05;;;4.30;99.90;;;;;;5050913;28;20052;-45
2023/05/03 01:12:39;;;;;;;3.30;0.80;;;4.30;99.90;;;;;;5050658;28;20513;-47
2023/05/03 01:15:14;;;;;;;4.57;1.10;;;4.30;99.90;;;;;;5042979;28;20044;-48
2023/05/03 01:17:49;;;;;;;2.65;1.10;;;4.20;99.90;;;;;;5050407;28;20041;-47
2023/05/03 01:20:23;;;;;;;2.78;1.23;;;4.20;99.90;;;;;;5050660;28;20048;-48
2023/05/03 01:23:00;;;;;;;4.82;1.10;;;4.00;99.90;;;;;;5050196;28;20119;-51
2023/05/03 01:25:26;;;;;;;7.25;1.27;;;4.20;99.90;;;;;;5050945;28;20044;-46
2023/05/03 01:27:52;;;;;;;4.57;1.92;;;4.20;99.90;;;;;;5050750;28;20041;-48
2023/05/03 01:30:22;;;;;;;2.65;1.38;;;4.30;99.90;;;;;;5050811;28;20048;-48
2023/05/03 01:33:06;;;;;;;4.55;1.52;;;4.30;99.90;;;;;;5050970;28;20037;-49
2023/05/03 01:35:49;;;;;;;3.88;1.20;;;4.30;99.90;;;;;;5050847;28;20120;-47
2023/05/03 01:38:16;;;;;;;3.58;1.05;;;5.10;99.90;;;;;;5050412;28;20056;-46
2023/05/03 01:40:51;;;;;;;7.38;2.05;;;4.20;99.90;;;;;;5030673;28;20438;-47
2023/05/03 01:43:18;;;;;;;4.07;1.40;;;4.40;99.90;;;;;;5050630;28;20120;-47
2023/05/03 01:45:44;;;;;;;4.80;1.35;;;4.50;99.90;;;;;;5050589;28;20138;-46
2023/05/03 01:48:15;;;;;;;2.83;1.50;;;4.50;99.90;;;;;;5050311;28;20479;-48
2023/05/03 01:50:41;;;;;;;2.88;1.75;;;4.50;99.90;;;;;;5050321;28;20037;-47
2023/05/03 01:53:06;;;;;;;4.55;1.42;;;4.60;99.90;;;;;;5050680;28;20041;-46
2023/05/03 01:55:32;;;;;;;3.83;1.75;;;4.60;99.90;;;;;;5050634;28;20036;-46
2023/05/03 01:57:58;;;;;;;4.70;1.70;;;4.50;99.90;;;;;;5050578;28;20049;-47
2023/05/03 02:00:24;;;;;;;2.20;1.40;;;4.60;99.90;;;;;;5050561;28;20119;-46
2023/05/03 02:02:50;;;;;;;3.78;1.88;;;4.60;99.90;;;;;;5050590;28;20524;-47
2023/05/03 02:05:15;;;;;;;4.50;2.22;;;4.60;99.90;;;;;;5050029;28;20041;-46
2023/05/03 02:07:41;;;;;;;6.18;2.10;;;4.60;99.90;;;;;;5050458;28;20112;-45
2023/05/03 02:10:07;;;;;;;4.18;2.15;;;4.60;99.90;;;;;;5049979;28;20103;-46
2023/05/03 02:12:33;;;;;;;3.95;2.30;;;4.60;99.90;;;;;;5049852;28;20041;-50
2023/05/03 02:14:59;;;;;;;4.43;2.53;;;4.60;99.90;;;;;;5050048;28;20041;-46
2023/05/03 02:17:25;;;;;;;4.97;2.25;;;4.60;99.90;;;;;;5050129;28;20041;-48
2023/05/03 02:19:54;;;;;;;5.80;2.60;;;4.70;99.90;;;;;;5049971;28;20054;-46
2023/05/03 02:22:19;;;;;;;4.00;2.00;;;4.70;99.90;;;;;;5049935;28;20064;-47
2023/05/03 02:24:46;;;;;;;8.30;2.47;;;4.70;99.90;;;;;;5049953;28;20049;-46
2023/05/03 02:27:11;;;;;;;5.13;2.33;;;4.70;99.90;;;;;;5048963;28;20498;-47
2023/05/03 02:29:37;;;;;;;4.55;2.00;;;5.70;99.90;;;;;;5049733;28;20045;-51
2023/05/03 02:32:04;;;;;;;5.93;2.25;;;4.80;99.90;;;;;;5049807;28;20041;-47
2023/05/03 02:34:31;;;;;;;6.40;2.55;;;4.80;99.90;;;;;;5049838;28;20063;-46
2023/05/03 02:36:57;;;;;;;5.15;2.70;;;4.80;99.90;;;;;;5050056;28;20041;-46
2023/05/03 02:39:23;;;;;;;3.28;2.10;;;4.80;99.90;;;;;;5049893;28;20052;-47
2023/05/03 02:41:48;;;;;;;4.00;2.10;;;4.80;99.90;;;;;;5050124;28;20041;-46
2023/05/03 02:44:14;;;;;;;5.03;1.95;;;2.60;99.90;;;;;;5050005;28;20072;-46
2023/05/03 02:46:40;;;;;;;8.02;3.55;;;4.80;99.90;;;;;;5049812;28;20037;-46
2023/05/03 02:49:07;;;;;;;5.00;2.33;;;4.80;99.90;;;;;;5049664;28;20474;-46
2023/05/03 02:51:33;;;;;;;3.30;2.03;;;4.80;99.90;;;;;;5049383;28;20550;-48
2023/05/03 02:53:59;;;;;;;4.30;2.50;;;4.70;99.90;;;;;;5028265;28;20045;-46
2023/05/03 02:56:25;;;;;;;5.15;2.50;;;4.80;99.90;;;;;;5045228;28;20049;-47
2023/05/03 02:58:51;;;;;;;7.35;2.90;;;4.80;99.90;;;;;;5049712;28;20037;-46
2023/05/03 03:01:17;;;;;;;6.80;2.65;;;4.80;99.90;;;;;;5049388;28;20044;-49
2023/05/03 03:03:43;;;;;;;3.42;2.50;;;4.40;99.90;;;;;;5049269;28;20056;-47
2023/05/03 03:06:08;;;;;;;5.30;3.05;;;4.50;99.90;;;;;;5049605;28;20754;-46
2023/05/03 03:08:37;;;;;;;4.60;2.45;;;4.70;99.90;;;;;;5049324;28;20080;-47
2023/05/03 03:11:04;;;;;;;4.60;2.42;;;4.70;99.90;;;;;;5049469;28;20072;-47
2023/05/03 03:13:30;;;;;;;5.07;2.33;;;5.00;99.90;;;;;;5049646;28;20503;-45
2023/05/03 03:15:55;;;;;;;5.20;2.00;;;4.60;99.90;;;;;;5049357;28;20043;-46
2023/05/03 03:18:21;;;;;;;4.57;2.45;;;4.60;99.90;;;;;;5049509;28;20215;-51
2023/05/03 03:20:47;;;;;;;5.70;2.28;;;4.60;99.90;;;;;;5049656;28;20376;-47
2023/05/03 03:23:13;;;;;;;4.47;1.95;;;4.60;99.90;;;;;;5049691;28;20035;-47
2023/05/03 03:25:40;;;;;;;4.60;1.88;;;4.60;99.90;;;;;;5049482;28;20506;-46
2023/05/03 03:28:06;;;;;;;4.32;2.33;;;4.20;99.90;;;;;;5049207;28;20569;-47
2023/05/03 03:30:32;;;;;;;3.97;2.63;;;4.20;99.90;;;;;;5049336;28;20067;-46
2023/05/03 03:32:57;;;;;;;4.68;2.35;;;4.60;99.90;;;;;;5049439;28;20041;-46
2023/05/03 03:35:23;;;;;;;6.65;2.17;;;4.70;99.90;;;;;;5049317;28;20044;-52
2023/05/03 03:37:49;;;;;;;5.68;2.40;;;4.60;99.90;;;;;;5050859;28;20644;-47
2023/05/03 03:40:15;;;;;;;4.60;2.08;;;4.70;99.90;;;;;;5052757;28;20049;-46
2023/05/03 03:42:40;;;;;;;6.30;3.78;;;4.70;99.90;;;;;;5052627;28;20131;-49
2023/05/03 03:45:06;;;;;;;6.05;2.63;;;4.70;99.90;;;;;;5052631;28;20040;-48
2023/05/03 03:47:32;;;;;;;5.65;2.85;;;4.70;99.90;;;;;;5052673;28;20829;-48
2023/05/03 03:49:59;;;;;;;6.32;2.90;;;4.70;99.90;;;;;;5044757;28;20111;-47
2023/05/03 03:52:25;;;;;;;5.10;2.25;;;4.70;99.90;;;;;;5051421;28;20081;-47
2023/05/03 03:54:51;;;;;;;4.68;2.75;;;4.80;99.90;;;;;;5052684;28;20065;-47
2023/05/03 03:57:17;;;;;;;4.40;2.30;;;4.80;99.90;;;;;;5053128;28;20044;-45
2023/05/03 03:59:43;;;;;;;4.97;1.70;;;4.80;99.90;;;;;;5052554;28;20049;-45
2023/05/03 04:02:09;;;;;;;4.38;2.00;;;4.80;99.90;;;;;;5052530;28;20095;-46
2023/05/03 04:04:35;;;;;;;5.10;2.65;;;5.80;99.90;;;;;;5052493;28;20041;-48
2023/05/03 04:07:01;;;;;;;3.67;2.30;;;4.80;99.90;;;;;;5052695;28;20056;-46
2023/05/03 04:09:27;;;;;;;4.82;2.40;;;4.80;99.90;;;;;;5052679;28;20040;-47
2023/05/03 04:11:52;;;;;;;7.00;2.40;;;4.90;99.90;;;;;;5052330;28;20047;-50
2023/05/03 04:14:18;;;;;;;4.82;2.40;;;4.90;99.90;;;;;;5031352;28;20084;-48
2023/05/03 04:16:44;;;;;;;5.38;2.35;;;4.90;99.90;;;;;;5050133;28;20056;-46
2023/05/03 04:19:10;;;;;;;5.63;2.83;;;5.00;99.90;;;;;;5051825;28;20052;-46
2023/05/03 04:21:35;;;;;;;5.22;2.10;;;5.00;99.90;;;;;;5051895;28;20056;-50
2023/05/03 04:24:05;;;;;;;5.85;2.33;;;4.80;99.90;;;;;;5052012;28;20045;-48
2023/05/03 04:26:31;;;;;;;6.07;2.55;;;5.30;99.90;;;;;;5052184;28;20120;-47
2023/05/03 04:28:57;;;;;;;6.85;2.63;;;5.70;99.90;;;;;;5052247;28;20049;-46
2023/05/03 04:31:23;;;;;;;4.20;2.15;;;5.10;99.90;;;;;;5052144;28;20044;-47
2023/05/03 04:33:49;;;;;;;4.88;2.38;;;5.10;99.90;;;;;;5051979;28;20091;-49
2023/05/03 04:36:15;;;;;;;6.60;2.58;;;5.20;99.90;;;;;;5051870;28;20076;-46
2023/05/03 04:38:43;;;;;;;3.83;2.33;;;5.20;99.90;;;;;;5051906;28;20052;-49
2023/05/03 04:41:10;;;;;;;4.30;2.25;;;5.20;99.90;;;;;;5051748;28;20128;-46
2023/05/03 04:43:36;;;;;;;3.78;2.80;;;5.20;99.90;;;;;;5031037;28;20038;-46
2023/05/03 04:46:03;;;;;;;4.72;2.72;;;5.30;99.90;;;;;;5051430;28;20049;-47
2023/05/03 04:48:29;;;;;;;5.93;2.72;;;5.30;99.90;;;;;;5051227;28;20045;-47
2023/05/03 04:50:55;;;;;;;5.60;2.90;;;5.40;99.90;;;;;;5051638;28;20049;-46
2023/05/03 04:53:20;;;;;;;7.05;4.63;;;5.40;99.90;;;;;;5051553;28;20036;-45
2023/05/03 04:55:46;;;;;;;7.57;3.45;;;5.50;99.90;;;;;;5051597;28;20041;-46
2023/05/03 04:58:12;;;;;;;4.22;2.80;;;5.50;99.90;;;;;;5051201;28;20049;-47
2023/05/03 05:00:38;;;;;;;8.70;3.00;;;5.60;99.90;;;;;;5051505;28;20072;-46
2023/05/03 05:03:05;;;;;;;4.72;2.63;;;5.60;99.90;;;;;;5051304;28;20041;-47
2023/05/03 05:05:30;;;;;;;8.48;2.78;;;5.60;99.90;;;;;;5051325;28;20041;-47
2023/05/03 05:07:57;;;;;;;4.95;2.67;;;5.70;99.90;;;;;;5051424;28;20037;-46
2023/05/03 05:10:22;;;;;;;4.38;2.60;;;5.80;99.90;;;;;;5051620;28;20045;-47
2023/05/03 05:12:48;;;;;;;8.38;3.67;;;5.80;99.90;;;;;;5051324;28;20056;-46
2023/05/03 05:15:14;;;;;;;4.57;2.80;;;5.90;99.90;;;;;;5051409;28;20040;-46
2023/05/03 05:17:40;;;;;;;3.85;2.60;;;5.90;99.90;;;;;;5051431;28;20083;-46
2023/05/03 05:20:07;;;;;;;8.10;3.10;;;5.90;99.90;;;;;;5051145;28;20044;-46
2023/05/03 05:22:33;;;;;;;6.93;3.15;;;6.00;99.90;;;;;;5050469;28;20165;-47
2023/05/03 05:24:59;;;;;;;5.82;2.42;;;6.00;99.90;;;;;;5050324;28;20121;-45
2023/05/03 05:27:26;;;;;;;5.00;2.63;;;6.10;99.90;;;;;;5050841;28;20041;-51
2023/05/03 05:29:51;;;;;;;7.30;2.45;;;6.20;99.90;;;;;;5050973;28;20440;-46
2023/05/03 05:32:17;;;;;;;4.05;2.28;;;6.30;99.90;;;;;;5050969;28;20506;-46
2023/05/03 05:34:43;;;;;;;6.93;3.33;;;6.10;99.90;;;;;;5030950;28;20046;-47
2023/05/03 05:37:09;;;;;;;4.10;2.20;;;6.10;99.90;;;;;;5050781;28;20367;-47
2023/05/03 05:39:35;;;;;;;8.18;3.33;;;6.40;99.90;;;;;;5050429;28;20090;-47
2023/05/03 05:42:01;;;;;;;6.07;2.83;;;6.70;99.90;;;;;;5050548;28;20410;-51
2023/05/03 05:44:27;;;;;;;5.30;2.50;;;6.80;99.90;;;;;;5050809;28;20047;-46
2023/05/03 05:46:53;;;;;;;5.63;2.33;;;6.90;99.90;;;;;;5051011;28;20050;-48
2023/05/03 05:49:18;;;;;;;5.10;2.40;;;7.00;99.90;;;;;;5050772;28;20048;-46
2023/05/03 05:51:44;;;;;;;5.57;2.60;;;7.00;99.90;;;;;;5050487;28;20052;-47
2023/05/03 05:54:10;;;;;;;4.78;2.35;;;7.10;99.90;;;;;;5029346;28;20053;-46
2023/05/03 05:56:35;;;;;;;5.10;2.67;;;7.20;99.90;;;;;;5047548;28;20041;-47
2023/05/03 05:59:03;;;;;;;4.25;2.30;;;7.20;99.90;;;;;;5050448;28;20048;-47
2023/05/03 06:01:30;;;;;;;6.43;2.30;;;6.90;99.90;;;;;;5049805;28;20048;-47
2023/05/03 06:03:56;;;;;;;5.28;2.65;;;7.30;99.90;;;;;;5050218;28;20045;-47
2023/05/03 06:06:22;;;;;;;4.72;2.08;;;7.40;99.90;;;;;;5050344;28;20041;-46
2023/05/03 06:08:50;;;;;;;5.53;2.20;;;7.30;99.90;;;;;;5050357;28;20099;-47
2023/05/03 06:11:16;;;;;;;4.43;2.40;;;8.20;99.90;;;;;;5050365;28;20033;-45
2023/05/03 06:13:42;;;;;;;5.28;2.10;;;7.50;99.90;;;;;;5050071;28;20145;-48
2023/05/03 06:16:10;;;;;;;6.72;2.03;;;7.60;99.90;;;;;;5049796;28;20047;-48
2023/05/03 06:18:35;;;;;;;4.57;2.38;;;7.60;99.90;;;;;;5049756;28;20045;-48
2023/05/03 06:21:01;;;;;;;3.53;1.90;;;7.70;99.90;;;;;;5052467;28;20048;-46
2023/05/03 06:23:27;;;;;;;3.63;1.90;;;7.70;99.90;;;;;;5051064;28;20049;-47
2023/05/03 06:25:53;;;;;;;3.65;1.70;;;8.10;99.90;;;;;;5048898;28;20044;-48
2023/05/03 06:28:19;;;;;;;3.60;1.80;;;7.80;99.90;;;;;;5049004;28;20399;-47
2023/05/03 06:30:49;;;;;;;4.95;1.92;;;7.90;99.90;;;;;;5041073;28;20044;-47
2023/05/03 06:33:14;;;;;;;6.32;1.55;;;8.90;99.90;;;;;;5049261;28;20048;-50
2023/05/03 06:35:40;;;;;;;2.95;1.35;;;7.80;99.90;;;;;;5049207;28;20048;-48
2023/05/03 06:38:07;;;;;;;2.85;1.00;;;7.80;99.90;;;;;;5048995;28;20395;-48
2023/05/03 06:40:33;;;;;;;2.75;0.90;;;8.20;99.90;;;;;;5049409;28;20057;-46
2023/05/03 06:42:59;;;;;;;3.92;1.20;;;8.10;99.90;;;;;;5041507;28;20045;-48
2023/05/03 06:45:25;;;;;;;3.05;0.65;;;8.40;99.90;;;;;;5049914;28;20091;-47
2023/05/03 06:47:50;;;;;;;1.98;0.77;;;8.50;99.90;;;;;;5049642;28;20040;-46
2023/05/03 06:50:18;;;;;;;5.03;1.02;;;8.20;99.90;;;;;;5049442;28;20041;-50
2023/05/03 06:52:45;;;;;;;3.53;1.33;;;8.30;99.90;;;;;;5049290;28;20033;-47
2023/05/03 06:55:11;;;;;;;3.63;0.95;;;8.30;99.90;;;;;;5049635;28;20364;-46
2023/05/03 06:57:37;;;;;;;1.35;0.80;;;8.30;99.90;;;;;;5049388;28;20063;-49
2023/05/03 07:00:06;;;;;;;3.35;0.60;;;8.00;99.90;;;;;;5049417;28;20049;-47
2023/05/03 07:02:32;;;;;;;2.95;0.63;;;8.40;99.90;;;;;;5049582;28;20095;-46
2023/05/03 07:04:58;;;;;;;2.80;0.50;;;8.40;99.90;;;;;;5049630;28;20044;-46
2023/05/03 07:07:24;;;;;;;3.38;0.50;;;8.30;99.90;;;;;;5049238;28;20041;-49
2023/05/03 07:09:50;;;;;;;3.20;0.50;;;8.50;99.90;;;;;;5049285;28;20428;-47
2023/05/03 07:12:15;;;;;;;1.67;0.50;;;8.50;99.90;;;;;;5050757;28;20094;-48
2023/05/03 07:14:41;;;;;;;1.55;0.57;;;8.60;99.90;;;;;;5052013;28;20036;-47
2023/05/03 07:17:08;;;;;;;2.30;0.45;;;8.60;99.80;;;;;;5052067;28;20083;-47
2023/05/03 07:19:33;;;;;;;3.85;0.50;;;8.90;99.30;;;;;;5053166;28;20044;-46
2023/05/03 07:22:01;;;;;;;2.50;0.30;;;8.50;98.80;;;;;;5053317;28;20057;-47
2023/05/03 07:24:27;;;;;;;4.03;0.50;;;8.70;98.30;;;;;;5052504;28;20695;-48
2023/05/03 07:26:53;;;;;;;2.53;0.50;;;8.60;98.20;;;;;;5052612;28;20049;-48
2023/05/03 07:29:18;;;;;;;1.23;0.43;;;8.80;98.10;;;;;;5051768;28;20525;-47
2023/05/03 07:31:44;;;;;;;2.90;0.52;;;9.00;97.70;;;;;;5052088;28;20040;-48
2023/05/03 07:34:10;;;;;;;1.80;0.57;;;8.90;97.70;;;;;;5052157;28;20131;-47
2023/05/03 07:36:37;;;;;;;2.10;0.55;;;9.00;97.60;;;;;;5052139;28;20904;-46
2023/05/03 07:39:03;;;;;;;4.55;0.40;;;8.90;97.50;;;;;;5050256;28;20490;-47
2023/05/03 07:41:30;;;;;;;4.75;0.80;;;8.90;97.20;;;;;;5053030;28;20705;-46
2023/05/03 07:43:56;;;;;;;3.10;0.50;;;8.90;97.00;;;;;;5053321;28;20109;-47
2023/05/03 07:46:22;;;;;;;4.72;0.63;;;9.00;96.90;;;;;;5053072;28;20490;-48
2023/05/03 07:48:48;;;;;;;3.22;0.68;;;9.10;96.70;;;;;;5051926;28;20060;-47
2023/05/03 07:51:14;;;;;;;3.28;0.70;;;9.10;96.60;;;;;;5052691;28;20044;-47
2023/05/03 07:53:40;;;;;;;4.00;0.50;;;9.20;96.50;;;;;;5052519;28;20501;-46
2023/05/03 07:56:09;;;;;;;5.25;0.57;;;9.00;96.20;;;;;;5052588;28;20048;-50
2023/05/03 07:58:35;;;;;;;8.15;0.80;;;9.10;95.80;;;;;;5052853;28;20053;-47
2023/05/03 08:01:02;;;;;;;7.47;0.77;;;9.10;95.80;;;;;;5052771;28;20052;-45
2023/05/03 08:03:28;;;;;;;3.72;1.17;;;9.20;95.70;;;;;;5053034;28;20115;-47
2023/05/03 08:05:53;;;;;;;11.65;0.80;;;9.20;95.40;;;;;;5053297;28;20442;-47
2023/05/03 08:08:19;;;;;;;5.60;0.73;;;9.80;95.10;;;;;;5053548;28;20048;-46
2023/05/03 08:10:45;;;;;;;4.93;0.55;;;8.90;94.30;;;;;;5053263;28;20132;-46
2023/05/03 08:13:11;;;;;;;3.30;0.80;;;9.30;93.60;;;;;;5052561;28;20059;-49
2023/05/03 08:15:36;;;;;;;1.83;0.50;;;9.80;93.30;;;;;;5052271;28;20068;-45
2023/05/03 08:18:02;;;;;;;2.72;0.47;;;9.60;93.10;;;;;;5051692;28;20088;-46
2023/05/03 08:20:28;;;;;;;5.05;0.70;;;9.10;92.70;;;;;;5052132;28;20044;-46
2023/05/03 08:22:55;;;;;;;2.67;0.77;;;9.20;93.10;;;;;;5051518;28;21441;-47
2023/05/03 08:25:27;;;;;;;4.25;1.55;;;9.50;92.90;;;;;;5051458;28;20056;-46
2023/05/03 08:27:54;;;;;;;4.15;0.70;;;9.40;92.60;;;;;;5052700;28;20055;-48
2023/05/03 08:30:20;;;;;;;2.97;0.65;;;9.30;92.20;;;;;;5052580;28;20043;-47
2023/05/03 08:32:46;;;;;;;3.42;0.73;;;9.30;92.10;;;;;;5052088;28;20507;-49
2023/05/03 08:35:14;;;;;;;4.22;0.80;;;9.40;92.20;;;;;;5052456;28;20095;-49
2023/05/03 08:37:41;;;;;;;2.58;0.60;;;10.40;92.00;;;;;;5052259;28;20044;-46
2023/05/03 08:40:10;;;;;;;1.50;0.45;;;9.50;91.60;;;;;;5052358;28;20044;-47
2023/05/03 08:42:44;;;;;;;5.35;0.80;;;9.50;90.90;;;;;;5052355;28;20044;-45
2023/05/03 08:45:14;;;;;;;4.50;0.63;;;9.60;91.20;;;;;;5051890;28;20131;-47
2023/05/03 08:47:40;;;;;;;2.65;0.63;;;9.90;91.30;;;;;;5052481;28;20090;-47
2023/05/03 08:50:10;;;;;;;4.22;0.40;;;10.30;91.30;;;;;;5051913;28;20187;-46
2023/05/03 08:52:41;;;;;;;2.72;0.47;;;9.90;90.50;;;;;;5051626;28;20040;-47
2023/05/03 08:55:08;;;;;;;2.88;0.80;;;10.00;91.60;;;;;;5051284;28;20741;-48
2023/05/03 08:57:34;;;;;;;3.33;0.90;;;10.20;92.70;;;;;;5050611;28;20503;-46
2023/05/03 09:00:00;;;;;;;3.83;0.98;;;10.70;91.70;;;;;;5051266;28;20063;-48
2023/05/03 09:02:27;;;;;;;1.52;0.50;;;10.60;91.20;;;;;;5051388;28;20040;-47
2023/05/03 09:04:56;;;;;;;3.00;0.55;;;11.20;92.80;;;;;;5051153;28;20052;-50
2023/05/03 09:07:22;;;;;;;3.95;0.70;;;10.90;90.90;;;;;;5051272;28;20041;-48
2023/05/03 09:09:47;;;;;;;2.65;0.55;;;10.50;89.50;;;;;;5051215;28;20045;-47
2023/05/03 09:12:34;;;;;;;3.80;0.50;;;10.70;89.30;;;;;;5051582;28;20045;-46
2023/05/03 09:15:00;;;;;;;1.33;0.40;;;10.90;88.90;;;;;;5051363;28;20045;-51
2023/05/03 09:17:25;;;;;;;2.92;0.95;;;11.00;88.60;;;;;;5051262;28;20067;-46
2023/05/03 09:19:53;;;;;;;2.55;0.50;;;11.20;88.40;;;;;;5032077;28;20518;-47
2023/05/03 09:22:19;;;;;;;1.90;0.30;;;11.50;87.90;;;;;;5050981;28;20080;-47
2023/05/03 09:24:55;;;;;;;3.13;0.40;;;11.30;87.10;;;;;;5050868;28;20134;-46
2023/05/03 09:27:23;;;;;;;4.55;0.88;;;11.30;84.90;;;;;;5050749;28;20037;-49
2023/05/03 09:29:50;;;;;;;3.70;0.50;;;11.50;85.80;;;;;;5050995;28;20696;-47
2023/05/03 09:32:16;;;;;;;1.98;0.55;;;11.50;85.90;;;;;;5051008;28;20450;-47
2023/05/03 09:34:43;;;;;;;3.10;0.32;;;11.30;85.10;;;;;;5050858;28;20119;-47
2023/05/03 09:37:09;;;;;;;6.15;0.47;;;11.40;84.00;;;;;;5050681;28;20049;-46
2023/05/03 09:39:37;;;;;;;1.02;0.40;;;11.50;82.90;;;;;;5050905;28;20453;-47
2023/05/03 09:42:29;;;;;;;5.28;0.52;;;11.60;83.40;;;;;;5050510;28;20032;-49
2023/05/03 09:44:56;;;;;;;2.65;0.40;;;11.50;83.10;;;;;;5039272;28;20049;-50
2023/05/03 09:47:24;;;;;;;4.53;1.30;;;11.80;82.80;;;;;;5049772;28;20056;-47
2023/05/03 09:49:49;;;;;;;4.85;0.93;;;11.70;83.60;;;;;;5049838;28;20049;-49
2023/05/03 09:52:15;;;;;;;4.88;0.60;;;11.80;83.60;;;;;;5051111;28;20075;-47
2023/05/03 09:54:41;;;;;;;3.13;0.32;;;11.80;83.50;;;;;;5051183;28;20422;-50
2023/05/03 09:57:07;;;;;;;3.53;1.15;;;11.80;81.80;;;;;;5050823;28;20052;-47
2023/05/03 09:59:35;;;;;;;2.55;0.45;;;11.90;81.20;;;;;;5050785;28;20044;-47
2023/05/03 10:02:03;;;;;;;5.20;2.35;;;12.10;81.40;;;;;;5050129;28;20099;-48
2023/05/03 10:04:42;;;;;;;3.90;0.50;;;12.70;89.70;;;;;;5051001;28;20051;-48
2023/05/03 10:07:12;;;;;;;2.03;0.60;;;13.50;83.50;;;;;;5044413;28;20072;-51
2023/05/03 10:09:46;;;;;;;2.38;0.55;;;13.60;81.10;;;;;;5051384;28;20052;-47
2023/05/03 10:12:15;;;;;;;1.10;0.30;;;13.70;79.30;;;;;;5050899;28;20410;-50
2023/05/03 10:14:43;;;;;;;3.35;0.47;;;14.00;79.40;;;;;;5051139;28;20044;-48
2023/05/03 10:17:25;;;;;;;3.08;0.45;;;13.70;78.80;;;;;;5050429;28;20475;-46
2023/05/03 10:20:08;;;;;;;1.17;0.22;;;13.50;75.90;;;;;;5050572;28;20047;-48
2023/05/03 10:23:03;;;;;;;2.58;0.47;;;11.90;73.70;;;;;;5050318;28;20055;-47
2023/05/03 10:25:29;;;;;;;3.05;0.38;;;13.20;74.70;;;;;;5050213;28;20083;-47
2023/05/03 10:28:07;;;;;;;1.70;0.30;;;13.40;76.80;;;;;;5050353;28;20264;-47
2023/05/03 10:30:36;;;;;;;1.40;0.40;;;13.00;74.00;;;;;;5050315;28;20037;-46
2023/05/03 10:33:10;;;;;;;1.55;0.30;;;13.10;76.30;;;;;;5049538;28;20037;-46
2023/05/03 10:35:39;;;;;;;4.88;0.40;;;13.20;75.90;;;;;;5050274;28;20045;-50
2023/05/03 10:38:20;;;;;;;1.65;0.30;;;13.80;76.50;;;;;;5049429;28;20041;-47
2023/05/03 10:40:46;;;;;;;2.03;0.50;;;14.20;75.90;;;;;;5050076;28;20041;-47
2023/05/03 10:43:33;;;;;;;2.88;0.40;;;14.20;78.40;;;;;;5049652;28;20033;-46
2023/05/03 10:46:04;;;;;;;3.25;0.43;;;14.30;76.00;;;;;;5049420;28;20059;-48
2023/05/03 10:48:31;;;;;;;3.28;0.30;;;14.30;78.20;;;;;;5049334;28;20040;-47
2023/05/03 10:51:27;;;;;;;2.65;0.50;;;14.20;77.70;;;;;;5049702;28;20408;-50
2023/05/03 10:53:53;;;;;;;0.77;0.30;;;14.00;74.20;;;;;;5023255;28;20110;-48
2023/05/03 10:56:19;;;;;;;1.88;0.30;;;13.70;76.00;;;;;;5049659;28;20036;-47
2023/05/03 10:58:46;;;;;;;1.67;0.38;;;14.00;77.40;;;;;;5049955;28;20045;-48
2023/05/03 11:01:16;;;;;;;5.40;0.30;;;13.50;76.90;;;;;;5049810;28;20441;-46
2023/05/03 11:04:07;;;;;;;2.50;0.40;;;13.40;76.70;;;;;;5049869;28;20387;-48
2023/05/03 11:06:39;;;;;;;2.40;0.45;;;13.40;74.30;;;;;;5050023;28;20053;-49
2023/05/03 11:09:07;;;;;;;1.63;0.38;;;13.40;77.10;;;;;;5050229;28;20275;-48
2023/05/03 11:11:36;;;;;;;3.55;0.50;;;13.40;76.40;;;;;;5050014;28;20119;-47
2023/05/03 11:14:02;;;;;;;3.78;0.60;;;13.40;75.80;;;;;;5042523;28;20041;-47
2023/05/03 11:16:29;;;;;;;3.00;0.43;;;13.50;76.80;;;;;;5050207;28;20149;-47
2023/05/03 11:18:55;;;;;;;4.65;0.40;;;13.60;76.60;;;;;;5049835;28;20048;-48
2023/05/03 11:21:22;;;;;;;2.63;0.70;;;14.10;76.80;;;;;;5050867;28;20051;-48
2023/05/03 11:23:47;;;;;;;3.03;0.60;;;13.60;74.60;;;;;;5050488;28;20057;-48
2023/05/03 11:26:13;;;;;;;4.03;1.15;;;13.80;74.50;;;;;;5049993;28;20037;-47
2023/05/03 11:28:40;;;;;;;4.18;0.40;;;13.40;75.10;;;;;;5050086;28;20036;-48
2023/05/03 11:31:07;;;;;;;3.75;0.57;;;13.50;76.60;;;;;;5049661;28;20505;-48
2023/05/03 11:33:34;;;;;;;4.07;0.47;;;13.40;76.80;;;;;;5048839;28;20083;-51
2023/05/03 11:36:08;;;;;;;3.67;0.70;;;13.50;76.10;;;;;;5048650;28;20041;-47
2023/05/03 11:38:35;;;;;;;4.93;0.40;;;13.50;75.50;;;;;;5048940;28;20367;-47
2023/05/03 11:41:13;;;;;;;3.22;0.40;;;13.40;75.50;;;;;;5048292;28;20079;-50
2023/05/03 11:43:43;;;;;;;3.85;0.47;;;13.40;76.20;;;;;;5048866;28;20041;-50
2023/05/03 11:46:10;;;;;;;3.28;1.25;;;13.70;76.20;;;;;;5049426;28;20077;-51
2023/05/03 11:48:37;;;;;;;3.53;0.82;;;13.20;75.20;;;;;;5049452;28;20080;-46
2023/05/03 11:51:08;;;;;;;2.78;0.45;;;13.10;76.40;;;;;;5049033;28;20045;-47
2023/05/03 11:53:37;;;;;;;3.50;0.55;;;13.10;77.40;;;;;;5049368;28;20142;-48
2023/05/03 11:56:19;;;;;;;3.67;0.70;;;13.20;77.30;;;;;;5049778;28;20109;-47
2023/05/03 11:58:57;;;;;;;0.95;0.32;;;13.10;76.10;;;;;;5051293;28;20127;-49
2023/05/03 12:01:27;;;;;;;3.72;0.63;;;13.60;76.50;;;;;;5053199;28;20128;-46
2023/05/03 12:03:58;;;;;;;1.90;0.60;;;13.20;76.10;;;;;;5052940;28;20037;-48
2023/05/03 12:06:26;;;;;;;3.53;0.88;;;13.60;76.60;;;;;;5053278;28;20167;-47
2023/05/03 12:08:52;;;;;;;3.70;0.60;;;13.10;76.40;;;;;;5052958;28;20040;-47
2023/05/03 12:11:17;;;;;;;1.50;0.52;;;13.40;75.40;;;;;;5053137;28;20079;-50
2023/05/03 12:13:43;;;;;;;2.35;0.65;;;13.40;76.00;;;;;;5052871;28;20091;-47
2023/05/03 12:16:10;;;;;;;3.22;0.88;;;13.10;76.10;;;;;;5052922;28;20043;-46
2023/05/03 12:18:52;;;;;;;2.20;0.98;;;13.40;76.10;;;;;;5052543;28;20059;-48
2023/05/03 12:21:23;;;;;;;3.95;0.93;;;13.10;77.50;;;;;;5052169;28;20033;-47
2023/05/03 12:23:50;;;;;;;4.57;0.50;;;13.20;77.90;;;;;;5070950;28;20061;-51
2023/05/03 12:26:18;;;;;;;4.10;0.90;;;13.20;77.80;;;;;;5071615;28;20051;-48
2023/05/03 12:28:45;;;;;;;2.10;0.50;;;13.30;77.90;;;;;;5053010;28;20142;-46
2023/05/03 12:31:11;;;;;;;4.43;0.70;;;13.70;78.30;;;;;;5052844;28;20120;-46
2023/05/03 12:33:37;;;;;;;4.07;0.95;;;13.70;78.10;;;;;;5052771;28;20183;-48
2023/05/03 12:36:04;;;;;;;2.70;0.47;;;13.70;77.30;;;;;;5034722;28;20037;-48
2023/05/03 12:38:29;;;;;;;3.10;0.60;;;13.40;76.60;;;;;;5052252;28;20499;-46
2023/05/03 12:40:56;;;;;;;3.83;0.70;;;13.40;75.60;;;;;;5052421;28;20071;-50
2023/05/03 12:43:22;;;;;;;3.90;0.60;;;13.40;75.90;;;;;;5052652;28;20049;-47
2023/05/03 12:45:47;;;;;;;3.67;0.47;;;13.70;75.90;;;;;;5052489;28;20372;-49
2023/05/03 12:48:13;;;;;;;2.10;0.55;;;13.10;75.40;;;;;;5048078;28;20080;-46
2023/05/03 12:50:39;;;;;;;4.45;0.70;;;13.20;75.60;;;;;;5040407;28;20055;-46
2023/05/03 12:53:05;;;;;;;2.13;0.60;;;13.10;76.20;;;;;;5051826;28;20110;-44
2023/05/03 12:55:33;;;;;;;3.13;0.55;;;13.10;76.90;;;;;;5052405;28;20137;-45